sensor_id;sensor_type;location;lat;lon;timestamp;P1;durP1;ratioP1;P2;durP2;ratioP2
60030;SDS011;45901;47.600;9.890;2022-12-19T00:01:03;11.40;;;6.27;;
60030;SDS011;45901;47.600;9.890;2022-12-19T00:03:36;12.30;;;6.63;;
60030;SDS011;45901;47.600;9.890;2022-12-19T00:06:03;11.83;;;6.57;;
60030;SDS011;45901;47.600;9.890;2022-12-19T00:08:32;11.47;;;6.03;;
60030;SDS011;45901;47.600;9.890;2022-12-19T00:11:00;10.93;;;5.87;;
60030;SDS011;45901;47.600;9.890;2022-12-19T00:13:29;8.80;;;4.43;;
60030;SDS011;45901;47.600;9.890;2022-12-19T00:16:00;12.40;;;5.97;;
60030;SDS011;45901;47.600;9.890;2022-12-19T00:18:29;9.03;;;5.40;;
60030;SDS011;45901;47.600;9.890;2022-12-19T00:20:56;8.20;;;4.83;;
60030;SDS011;45901;47.600;9.890;2022-12-19T00:23:27;9.30;;;4.90;;
60030;SDS011;45901;47.600;9.890;2022-12-19T00:26:06;8.90;;;5.00;;
60030;SDS011;45901;47.600;9.890;2022-12-19T00:28:35;9.87;;;5.77;;
60030;SDS011;45901;47.600;9.890;2022-12-19T00:31:03;14.60;;;8.00;;
60030;SDS011;45901;47.600;9.890;2022-12-19T00:33:31;12.60;;;6.60;;
60030;SDS011;45901;47.600;9.890;2022-12-19T00:35:59;12.37;;;6.20;;
60030;SDS011;45901;47.600;9.890;2022-12-19T00:38:27;8.37;;;5.13;;
60030;SDS011;45901;47.600;9.890;2022-12-19T00:41:06;9.77;;;5.47;;
60030;SDS011;45901;47.600;9.890;2022-12-19T00:43:34;11.43;;;6.23;;
60030;SDS011;45901;47.600;9.890;2022-12-19T00:46:01;8.90;;;5.00;;
60030;SDS011;45901;47.600;9.890;2022-12-19T00:48:29;9.10;;;5.07;;
60030;SDS011;45901;47.600;9.890;2022-12-19T00:50:58;9.13;;;4.87;;
60030;SDS011;45901;47.600;9.890;2022-12-19T00:53:26;9.53;;;4.93;;
60030;SDS011;45901;47.600;9.890;2022-12-19T00:55:54;9.20;;;5.30;;
60030;SDS011;45901;47.600;9.890;2022-12-19T00:58:23;9.27;;;5.00;;
60030;SDS011;45901;47.600;9.890;2022-12-19T01:00:50;9.37;;;5.00;;
60030;SDS011;45901;47.600;9.890;2022-12-19T01:03:17;9.73;;;5.33;;
60030;SDS011;45901;47.600;9.890;2022-12-19T01:05:45;10.53;;;5.53;;
60030;SDS011;45901;47.600;9.890;2022-12-19T01:08:12;10.17;;;5.13;;
60030;SDS011;45901;47.600;9.890;2022-12-19T01:10:43;9.97;;;5.63;;
60030;SDS011;45901;47.600;9.890;2022-12-19T01:13:11;8.97;;;4.90;;
60030;SDS011;45901;47.600;9.890;2022-12-19T01:15:39;8.93;;;4.87;;
60030;SDS011;45901;47.600;9.890;2022-12-19T01:18:06;8.53;;;4.50;;
60030;SDS011;45901;47.600;9.890;2022-12-19T01:20:36;11.57;;;5.77;;
60030;SDS011;45901;47.600;9.890;2022-12-19T01:23:04;16.33;;;8.20;;
60030;SDS011;45901;47.600;9.890;2022-12-19T01:25:32;14.47;;;7.53;;
60030;SDS011;45901;47.600;9.890;2022-12-19T01:28:00;11.40;;;6.00;;
60030;SDS011;45901;47.600;9.890;2022-12-19T01:30:27;10.37;;;6.00;;
60030;SDS011;45901;47.600;9.890;2022-12-19T01:32:56;12.17;;;5.90;;
60030;SDS011;45901;47.600;9.890;2022-12-19T01:35:24;9.73;;;5.53;;
60030;SDS011;45901;47.600;9.890;2022-12-19T01:37:53;8.90;;;4.60;;
60030;SDS011;45901;47.600;9.890;2022-12-19T01:40:20;8.23;;;4.30;;
60030;SDS011;45901;47.600;9.890;2022-12-19T01:42:48;5.43;;;2.50;;
60030;SDS011;45901;47.600;9.890;2022-12-19T01:45:22;6.50;;;3.30;;
60030;SDS011;45901;47.600;9.890;2022-12-19T01:47:53;7.50;;;4.13;;
60030;SDS011;45901;47.600;9.890;2022-12-19T01:50:31;6.13;;;3.40;;
60030;SDS011;45901;47.600;9.890;2022-12-19T01:53:03;10.53;;;4.20;;
60030;SDS011;45901;47.600;9.890;2022-12-19T01:55:32;5.97;;;3.17;;
60030;SDS011;45901;47.600;9.890;2022-12-19T01:58:01;5.77;;;3.30;;
60030;SDS011;45901;47.600;9.890;2022-12-19T02:00:29;7.00;;;3.60;;
60030;SDS011;45901;47.600;9.890;2022-12-19T02:02:58;4.97;;;3.30;;
60030;SDS011;45901;47.600;9.890;2022-12-19T02:05:31;6.77;;;3.73;;
60030;SDS011;45901;47.600;9.890;2022-12-19T02:07:59;6.87;;;2.90;;
60030;SDS011;45901;47.600;9.890;2022-12-19T02:10:27;7.20;;;4.10;;
60030;SDS011;45901;47.600;9.890;2022-12-19T02:12:54;6.40;;;3.50;;
60030;SDS011;45901;47.600;9.890;2022-12-19T02:15:21;6.60;;;3.50;;
60030;SDS011;45901;47.600;9.890;2022-12-19T02:18:02;6.30;;;3.63;;
60030;SDS011;45901;47.600;9.890;2022-12-19T02:20:47;5.57;;;2.80;;
60030;SDS011;45901;47.600;9.890;2022-12-19T02:30:28;5.43;;;3.07;;
60030;SDS011;45901;47.600;9.890;2022-12-19T02:33:09;6.63;;;3.40;;
60030;SDS011;45901;47.600;9.890;2022-12-19T02:35:45;6.00;;;3.27;;
60030;SDS011;45901;47.600;9.890;2022-12-19T02:38:19;5.83;;;3.07;;
60030;SDS011;45901;47.600;9.890;2022-12-19T02:40:54;5.90;;;3.17;;
60030;SDS011;45901;47.600;9.890;2022-12-19T02:43:27;6.63;;;3.73;;
60030;SDS011;45901;47.600;9.890;2022-12-19T02:46:01;6.07;;;3.70;;
60030;SDS011;45901;47.600;9.890;2022-12-19T02:48:31;6.23;;;3.17;;
60030;SDS011;45901;47.600;9.890;2022-12-19T02:50:59;6.87;;;3.50;;
60030;SDS011;45901;47.600;9.890;2022-12-19T02:53:26;6.27;;;3.30;;
60030;SDS011;45901;47.600;9.890;2022-12-19T02:55:58;5.27;;;2.87;;
60030;SDS011;45901;47.600;9.890;2022-12-19T02:59:09;5.80;;;3.00;;
60030;SDS011;45901;47.600;9.890;2022-12-19T03:01:53;7.93;;;3.70;;
60030;SDS011;45901;47.600;9.890;2022-12-19T03:04:29;7.03;;;3.50;;
60030;SDS011;45901;47.600;9.890;2022-12-19T03:07:12;5.73;;;3.17;;
60030;SDS011;45901;47.600;9.890;2022-12-19T03:09:55;5.97;;;2.97;;
60030;SDS011;45901;47.600;9.890;2022-12-19T03:12:36;5.27;;;3.00;;
60030;SDS011;45901;47.600;9.890;2022-12-19T03:15:12;6.17;;;3.13;;
60030;SDS011;45901;47.600;9.890;2022-12-19T03:17:41;5.93;;;3.10;;
60030;SDS011;45901;47.600;9.890;2022-12-19T03:20:12;5.17;;;3.10;;
60030;SDS011;45901;47.600;9.890;2022-12-19T03:22:49;4.53;;;2.73;;
60030;SDS011;45901;47.600;9.890;2022-12-19T03:25:17;8.30;;;2.90;;
60030;SDS011;45901;47.600;9.890;2022-12-19T03:27:46;5.53;;;2.77;;
60030;SDS011;45901;47.600;9.890;2022-12-19T03:30:15;5.83;;;3.07;;
60030;SDS011;45901;47.600;9.890;2022-12-19T03:32:44;5.40;;;2.47;;
60030;SDS011;45901;47.600;9.890;2022-12-19T03:35:15;6.70;;;2.17;;
60030;SDS011;45901;47.600;9.890;2022-12-19T03:37:47;4.93;;;2.67;;
60030;SDS011;45901;47.600;9.890;2022-12-19T03:40:18;4.40;;;2.60;;
60030;SDS011;45901;47.600;9.890;2022-12-19T03:42:49;5.97;;;2.97;;
60030;SDS011;45901;47.600;9.890;2022-12-19T03:45:38;4.30;;;2.77;;
60030;SDS011;45901;47.600;9.890;2022-12-19T03:48:12;5.33;;;2.63;;
60030;SDS011;45901;47.600;9.890;2022-12-19T03:50:45;5.40;;;2.87;;
60030;SDS011;45901;47.600;9.890;2022-12-19T03:53:25;4.73;;;2.60;;
60030;SDS011;45901;47.600;9.890;2022-12-19T03:56:08;4.97;;;2.40;;
60030;SDS011;45901;47.600;9.890;2022-12-19T03:58:44;4.63;;;2.53;;
60030;SDS011;45901;47.600;9.890;2022-12-19T04:01:21;4.83;;;2.73;;
60030;SDS011;45901;47.600;9.890;2022-12-19T04:03:52;4.87;;;2.70;;
60030;SDS011;45901;47.600;9.890;2022-12-19T04:06:22;5.30;;;2.70;;
60030;SDS011;45901;47.600;9.890;2022-12-19T04:08:51;5.17;;;2.50;;
60030;SDS011;45901;47.600;9.890;2022-12-19T04:11:18;2.83;;;1.80;;
60030;SDS011;45901;47.600;9.890;2022-12-19T04:13:47;3.57;;;2.30;;
60030;SDS011;45901;47.600;9.890;2022-12-19T04:16:22;4.90;;;2.57;;
60030;SDS011;45901;47.600;9.890;2022-12-19T04:18:58;4.93;;;2.50;;
60030;SDS011;45901;47.600;9.890;2022-12-19T04:21:34;5.17;;;2.50;;
60030;SDS011;45901;47.600;9.890;2022-12-19T04:24:09;5.23;;;2.53;;
60030;SDS011;45901;47.600;9.890;2022-12-19T04:26:41;4.80;;;2.53;;
60030;SDS011;45901;47.600;9.890;2022-12-19T04:29:10;7.53;;;3.37;;
60030;SDS011;45901;47.600;9.890;2022-12-19T04:31:38;5.50;;;3.10;;
60030;SDS011;45901;47.600;9.890;2022-12-19T04:34:07;5.83;;;3.57;;
60030;SDS011;45901;47.600;9.890;2022-12-19T04:36:34;7.20;;;3.97;;
60030;SDS011;45901;47.600;9.890;2022-12-19T04:39:02;7.10;;;3.53;;
60030;SDS011;45901;47.600;9.890;2022-12-19T04:41:30;6.43;;;3.70;;
60030;SDS011;45901;47.600;9.890;2022-12-19T04:43:57;6.97;;;3.37;;
60030;SDS011;45901;47.600;9.890;2022-12-19T04:46:24;6.23;;;3.23;;
60030;SDS011;45901;47.600;9.890;2022-12-19T04:48:51;8.83;;;3.83;;
60030;SDS011;45901;47.600;9.890;2022-12-19T04:51:20;8.83;;;4.20;;
60030;SDS011;45901;47.600;9.890;2022-12-19T04:53:47;7.63;;;3.87;;
60030;SDS011;45901;47.600;9.890;2022-12-19T04:56:14;6.57;;;3.50;;
60030;SDS011;45901;47.600;9.890;2022-12-19T04:58:41;5.73;;;3.53;;
60030;SDS011;45901;47.600;9.890;2022-12-19T05:01:09;6.23;;;3.60;;
60030;SDS011;45901;47.600;9.890;2022-12-19T05:03:38;6.13;;;3.83;;
60030;SDS011;45901;47.600;9.890;2022-12-19T05:06:06;7.23;;;3.43;;
60030;SDS011;45901;47.600;9.890;2022-12-19T05:08:36;5.80;;;2.90;;
60030;SDS011;45901;47.600;9.890;2022-12-19T05:11:06;3.70;;;2.47;;
60030;SDS011;45901;47.600;9.890;2022-12-19T05:13:34;3.77;;;1.77;;
60030;SDS011;45901;47.600;9.890;2022-12-19T05:16:02;6.27;;;3.50;;
60030;SDS011;45901;47.600;9.890;2022-12-19T05:18:32;5.80;;;3.37;;
60030;SDS011;45901;47.600;9.890;2022-12-19T05:21:00;5.93;;;3.40;;
60030;SDS011;45901;47.600;9.890;2022-12-19T05:23:28;5.23;;;3.20;;
60030;SDS011;45901;47.600;9.890;2022-12-19T05:25:57;5.77;;;3.40;;
60030;SDS011;45901;47.600;9.890;2022-12-19T05:28:25;7.10;;;2.90;;
60030;SDS011;45901;47.600;9.890;2022-12-19T05:31:00;5.27;;;3.17;;
60030;SDS011;45901;47.600;9.890;2022-12-19T05:33:29;6.20;;;3.37;;
60030;SDS011;45901;47.600;9.890;2022-12-19T05:35:56;6.13;;;3.50;;
60030;SDS011;45901;47.600;9.890;2022-12-19T05:38:24;6.07;;;3.10;;
60030;SDS011;45901;47.600;9.890;2022-12-19T05:40:51;5.27;;;2.70;;
60030;SDS011;45901;47.600;9.890;2022-12-19T05:43:20;6.37;;;2.97;;
60030;SDS011;45901;47.600;9.890;2022-12-19T05:45:48;5.10;;;2.50;;
60030;SDS011;45901;47.600;9.890;2022-12-19T05:48:15;5.50;;;2.53;;
60030;SDS011;45901;47.600;9.890;2022-12-19T05:50:45;4.93;;;2.70;;
60030;SDS011;45901;47.600;9.890;2022-12-19T05:53:14;5.43;;;2.77;;
60030;SDS011;45901;47.600;9.890;2022-12-19T05:55:42;6.37;;;3.50;;
60030;SDS011;45901;47.600;9.890;2022-12-19T05:58:09;4.53;;;2.63;;
60030;SDS011;45901;47.600;9.890;2022-12-19T06:00:38;5.33;;;2.97;;
60030;SDS011;45901;47.600;9.890;2022-12-19T06:03:05;9.07;;;3.00;;
60030;SDS011;45901;47.600;9.890;2022-12-19T06:05:35;5.77;;;3.03;;
60030;SDS011;45901;47.600;9.890;2022-12-19T06:08:04;5.73;;;2.93;;
60030;SDS011;45901;47.600;9.890;2022-12-19T06:10:31;5.67;;;3.20;;
60030;SDS011;45901;47.600;9.890;2022-12-19T06:12:59;5.43;;;3.23;;
60030;SDS011;45901;47.600;9.890;2022-12-19T06:15:26;5.00;;;3.30;;
60030;SDS011;45901;47.600;9.890;2022-12-19T06:17:54;5.87;;;3.57;;
60030;SDS011;45901;47.600;9.890;2022-12-19T06:20:22;5.77;;;3.40;;
60030;SDS011;45901;47.600;9.890;2022-12-19T06:22:49;8.27;;;4.40;;
60030;SDS011;45901;47.600;9.890;2022-12-19T06:25:17;6.93;;;3.23;;
60030;SDS011;45901;47.600;9.890;2022-12-19T06:27:44;6.07;;;3.10;;
60030;SDS011;45901;47.600;9.890;2022-12-19T06:30:11;7.33;;;4.03;;
60030;SDS011;45901;47.600;9.890;2022-12-19T06:32:40;6.33;;;3.40;;
60030;SDS011;45901;47.600;9.890;2022-12-19T06:35:08;8.00;;;3.73;;
60030;SDS011;45901;47.600;9.890;2022-12-19T06:37:36;6.50;;;3.70;;
60030;SDS011;45901;47.600;9.890;2022-12-19T06:40:04;5.47;;;3.20;;
60030;SDS011;45901;47.600;9.890;2022-12-19T06:42:53;3.97;;;2.23;;
60030;SDS011;45901;47.600;9.890;2022-12-19T06:45:19;7.33;;;2.80;;
60030;SDS011;45901;47.600;9.890;2022-12-19T06:47:46;4.30;;;2.67;;
60030;SDS011;45901;47.600;9.890;2022-12-19T06:50:15;4.13;;;2.60;;
60030;SDS011;45901;47.600;9.890;2022-12-19T06:52:42;4.77;;;2.60;;
60030;SDS011;45901;47.600;9.890;2022-12-19T06:55:09;4.47;;;2.40;;
60030;SDS011;45901;47.600;9.890;2022-12-19T06:57:36;4.83;;;2.57;;
60030;SDS011;45901;47.600;9.890;2022-12-19T07:00:10;5.27;;;2.77;;
60030;SDS011;45901;47.600;9.890;2022-12-19T07:02:38;4.60;;;2.70;;
60030;SDS011;45901;47.600;9.890;2022-12-19T07:05:10;7.97;;;2.87;;
60030;SDS011;45901;47.600;9.890;2022-12-19T07:07:39;4.33;;;2.90;;
60030;SDS011;45901;47.600;9.890;2022-12-19T07:10:07;5.80;;;3.47;;
60030;SDS011;45901;47.600;9.890;2022-12-19T07:12:35;11.70;;;3.60;;
60030;SDS011;45901;47.600;9.890;2022-12-19T07:15:03;4.77;;;3.37;;
60030;SDS011;45901;47.600;9.890;2022-12-19T07:17:35;5.33;;;3.13;;
60030;SDS011;45901;47.600;9.890;2022-12-19T07:20:03;6.30;;;3.50;;
60030;SDS011;45901;47.600;9.890;2022-12-19T07:22:31;6.60;;;3.57;;
60030;SDS011;45901;47.600;9.890;2022-12-19T07:25:02;7.07;;;5.20;;
60030;SDS011;45901;47.600;9.890;2022-12-19T07:27:31;6.70;;;4.60;;
60030;SDS011;45901;47.600;9.890;2022-12-19T07:29:58;7.83;;;4.13;;
60030;SDS011;45901;47.600;9.890;2022-12-19T07:32:26;6.60;;;3.97;;
60030;SDS011;45901;47.600;9.890;2022-12-19T07:34:53;10.20;;;4.77;;
60030;SDS011;45901;47.600;9.890;2022-12-19T07:37:20;7.23;;;4.03;;
60030;SDS011;45901;47.600;9.890;2022-12-19T07:39:48;8.13;;;3.67;;
60030;SDS011;45901;47.600;9.890;2022-12-19T07:42:18;8.87;;;5.50;;
60030;SDS011;45901;47.600;9.890;2022-12-19T07:44:45;7.57;;;4.30;;
60030;SDS011;45901;47.600;9.890;2022-12-19T07:47:12;9.37;;;4.70;;
60030;SDS011;45901;47.600;9.890;2022-12-19T07:49:39;9.63;;;4.90;;
60030;SDS011;45901;47.600;9.890;2022-12-19T07:52:07;8.10;;;5.20;;
60030;SDS011;45901;47.600;9.890;2022-12-19T07:54:34;8.43;;;4.90;;
60030;SDS011;45901;47.600;9.890;2022-12-19T07:57:01;8.17;;;5.40;;
60030;SDS011;45901;47.600;9.890;2022-12-19T07:59:30;9.03;;;5.47;;
60030;SDS011;45901;47.600;9.890;2022-12-19T08:01:58;5.57;;;3.83;;
60030;SDS011;45901;47.600;9.890;2022-12-19T08:04:25;7.17;;;4.40;;
60030;SDS011;45901;47.600;9.890;2022-12-19T08:06:52;18.50;;;9.80;;
60030;SDS011;45901;47.600;9.890;2022-12-19T08:09:19;30.87;;;14.50;;
60030;SDS011;45901;47.600;9.890;2022-12-19T08:11:47;20.50;;;10.07;;
60030;SDS011;45901;47.600;9.890;2022-12-19T08:14:14;9.33;;;5.30;;
60030;SDS011;45901;47.600;9.890;2022-12-19T08:16:42;10.03;;;5.00;;
60030;SDS011;45901;47.600;9.890;2022-12-19T08:19:10;14.27;;;7.97;;
60030;SDS011;45901;47.600;9.890;2022-12-19T08:21:37;21.23;;;11.00;;
60030;SDS011;45901;47.600;9.890;2022-12-19T08:24:04;18.67;;;9.77;;
60030;SDS011;45901;47.600;9.890;2022-12-19T08:26:32;15.67;;;7.67;;
60030;SDS011;45901;47.600;9.890;2022-12-19T08:28:59;15.83;;;7.60;;
60030;SDS011;45901;47.600;9.890;2022-12-19T08:31:27;13.47;;;7.10;;
60030;SDS011;45901;47.600;9.890;2022-12-19T08:33:55;13.83;;;7.00;;
60030;SDS011;45901;47.600;9.890;2022-12-19T08:36:23;13.33;;;7.03;;
60030;SDS011;45901;47.600;9.890;2022-12-19T08:38:51;12.70;;;6.90;;
60030;SDS011;45901;47.600;9.890;2022-12-19T08:41:18;12.97;;;6.30;;
60030;SDS011;45901;47.600;9.890;2022-12-19T08:43:46;12.73;;;6.50;;
60030;SDS011;45901;47.600;9.890;2022-12-19T08:46:15;16.93;;;9.07;;
60030;SDS011;45901;47.600;9.890;2022-12-19T08:48:42;19.37;;;10.97;;
60030;SDS011;45901;47.600;9.890;2022-12-19T08:51:12;14.23;;;8.40;;
60030;SDS011;45901;47.600;9.890;2022-12-19T08:53:41;12.90;;;7.93;;
60030;SDS011;45901;47.600;9.890;2022-12-19T08:56:10;12.30;;;7.20;;
60030;SDS011;45901;47.600;9.890;2022-12-19T08:58:40;13.20;;;8.23;;
60030;SDS011;45901;47.600;9.890;2022-12-19T09:01:10;17.47;;;9.33;;
60030;SDS011;45901;47.600;9.890;2022-12-19T09:03:39;19.73;;;9.87;;
60030;SDS011;45901;47.600;9.890;2022-12-19T09:06:07;26.30;;;12.13;;
60030;SDS011;45901;47.600;9.890;2022-12-19T09:08:38;27.93;;;12.73;;
60030;SDS011;45901;47.600;9.890;2022-12-19T09:11:06;28.03;;;12.50;;
60030;SDS011;45901;47.600;9.890;2022-12-19T09:13:36;24.27;;;12.47;;
60030;SDS011;45901;47.600;9.890;2022-12-19T09:16:07;28.60;;;13.40;;
60030;SDS011;45901;47.600;9.890;2022-12-19T09:18:37;28.70;;;16.20;;
60030;SDS011;45901;47.600;9.890;2022-12-19T09:21:04;26.90;;;14.50;;
60030;SDS011;45901;47.600;9.890;2022-12-19T09:23:33;27.90;;;15.93;;
60030;SDS011;45901;47.600;9.890;2022-12-19T09:26:03;27.50;;;15.90;;
60030;SDS011;45901;47.600;9.890;2022-12-19T09:28:32;28.47;;;16.07;;
60030;SDS011;45901;47.600;9.890;2022-12-19T09:31:02;25.00;;;13.03;;
60030;SDS011;45901;47.600;9.890;2022-12-19T09:33:32;17.53;;;9.83;;
60030;SDS011;45901;47.600;9.890;2022-12-19T09:36:01;23.13;;;12.93;;
60030;SDS011;45901;47.600;9.890;2022-12-19T09:38:29;26.17;;;15.67;;
60030;SDS011;45901;47.600;9.890;2022-12-19T09:41:07;27.87;;;16.73;;
60030;SDS011;45901;47.600;9.890;2022-12-19T09:43:57;28.07;;;17.27;;
60030;SDS011;45901;47.600;9.890;2022-12-19T09:46:36;27.40;;;16.17;;
60030;SDS011;45901;47.600;9.890;2022-12-19T09:49:13;25.47;;;15.03;;
60030;SDS011;45901;47.600;9.890;2022-12-19T09:51:46;27.50;;;14.77;;
60030;SDS011;45901;47.600;9.890;2022-12-19T09:54:23;25.83;;;14.37;;
60030;SDS011;45901;47.600;9.890;2022-12-19T09:57:00;25.37;;;13.03;;
60030;SDS011;45901;47.600;9.890;2022-12-19T09:59:34;21.03;;;12.03;;
60030;SDS011;45901;47.600;9.890;2022-12-19T10:02:13;18.80;;;10.87;;
60030;SDS011;45901;47.600;9.890;2022-12-19T10:04:56;19.40;;;12.43;;
60030;SDS011;45901;47.600;9.890;2022-12-19T10:07:32;20.83;;;11.90;;
60030;SDS011;45901;47.600;9.890;2022-12-19T10:09:59;16.10;;;9.97;;
60030;SDS011;45901;47.600;9.890;2022-12-19T10:12:35;13.50;;;7.87;;
60030;SDS011;45901;47.600;9.890;2022-12-19T10:15:19;17.60;;;10.97;;
60030;SDS011;45901;47.600;9.890;2022-12-19T10:18:01;26.17;;;16.93;;
60030;SDS011;45901;47.600;9.890;2022-12-19T10:20:47;33.33;;;20.03;;
60030;SDS011;45901;47.600;9.890;2022-12-19T10:23:38;30.70;;;19.50;;
60030;SDS011;45901;47.600;9.890;2022-12-19T10:26:42;40.80;;;24.90;;
60030;SDS011;45901;47.600;9.890;2022-12-19T10:29:24;38.63;;;21.63;;
60030;SDS011;45901;47.600;9.890;2022-12-19T10:32:16;32.37;;;20.53;;
60030;SDS011;45901;47.600;9.890;2022-12-19T10:34:51;27.30;;;16.23;;
60030;SDS011;45901;47.600;9.890;2022-12-19T10:37:21;15.43;;;8.63;;
60030;SDS011;45901;47.600;9.890;2022-12-19T10:39:55;10.23;;;6.50;;
60030;SDS011;45901;47.600;9.890;2022-12-19T10:42:32;6.20;;;4.00;;
60030;SDS011;45901;47.600;9.890;2022-12-19T10:45:11;8.20;;;3.67;;
60030;SDS011;45901;47.600;9.890;2022-12-19T10:47:41;13.20;;;7.37;;
60030;SDS011;45901;47.600;9.890;2022-12-19T10:50:10;12.60;;;7.30;;
60030;SDS011;45901;47.600;9.890;2022-12-19T10:52:49;13.80;;;7.57;;
60030;SDS011;45901;47.600;9.890;2022-12-19T10:55:25;23.87;;;13.00;;
60030;SDS011;45901;47.600;9.890;2022-12-19T10:58:10;18.33;;;10.70;;
60030;SDS011;45901;47.600;9.890;2022-12-19T11:00:48;22.00;;;13.77;;
60030;SDS011;45901;47.600;9.890;2022-12-19T11:03:30;28.63;;;16.03;;
60030;SDS011;45901;47.600;9.890;2022-12-19T11:05:59;28.43;;;18.30;;
60030;SDS011;45901;47.600;9.890;2022-12-19T11:08:29;26.67;;;16.63;;
60030;SDS011;45901;47.600;9.890;2022-12-19T11:11:09;27.70;;;18.07;;
60030;SDS011;45901;47.600;9.890;2022-12-19T11:13:40;27.63;;;17.60;;
60030;SDS011;45901;47.600;9.890;2022-12-19T11:16:12;28.17;;;17.40;;
60030;SDS011;45901;47.600;9.890;2022-12-19T11:18:48;26.03;;;17.17;;
60030;SDS011;45901;47.600;9.890;2022-12-19T11:21:16;120.50;;;49.30;;
60030;SDS011;45901;47.600;9.890;2022-12-19T11:23:51;26.87;;;16.27;;
60030;SDS011;45901;47.600;9.890;2022-12-19T11:26:28;26.87;;;15.17;;
60030;SDS011;45901;47.600;9.890;2022-12-19T11:29:16;22.63;;;13.43;;
60030;SDS011;45901;47.600;9.890;2022-12-19T11:31:55;21.00;;;12.97;;
60030;SDS011;45901;47.600;9.890;2022-12-19T11:34:26;25.67;;;15.23;;
60030;SDS011;45901;47.600;9.890;2022-12-19T11:36:56;30.37;;;16.17;;
60030;SDS011;45901;47.600;9.890;2022-12-19T11:39:48;28.67;;;17.53;;
60030;SDS011;45901;47.600;9.890;2022-12-19T11:42:21;27.97;;;17.33;;
60030;SDS011;45901;47.600;9.890;2022-12-19T11:44:53;24.47;;;16.00;;
60030;SDS011;45901;47.600;9.890;2022-12-19T11:47:30;27.53;;;17.63;;
60030;SDS011;45901;47.600;9.890;2022-12-19T11:50:08;29.93;;;19.63;;
60030;SDS011;45901;47.600;9.890;2022-12-19T11:52:46;28.37;;;18.80;;
60030;SDS011;45901;47.600;9.890;2022-12-19T11:55:21;30.83;;;18.77;;
60030;SDS011;45901;47.600;9.890;2022-12-19T11:57:52;28.63;;;17.53;;
60030;SDS011;45901;47.600;9.890;2022-12-19T12:00:21;24.60;;;16.07;;
60030;SDS011;45901;47.600;9.890;2022-12-19T12:03:03;21.37;;;14.27;;
60030;SDS011;45901;47.600;9.890;2022-12-19T12:06:03;19.30;;;13.73;;
60030;SDS011;45901;47.600;9.890;2022-12-19T12:08:57;22.57;;;14.17;;
60030;SDS011;45901;47.600;9.890;2022-12-19T12:11:37;23.53;;;15.03;;
60030;SDS011;45901;47.600;9.890;2022-12-19T12:14:13;22.63;;;13.93;;
60030;SDS011;45901;47.600;9.890;2022-12-19T12:16:50;20.77;;;12.83;;
60030;SDS011;45901;47.600;9.890;2022-12-19T12:19:54;23.83;;;12.00;;
60030;SDS011;45901;47.600;9.890;2022-12-19T12:22:51;13.70;;;8.17;;
60030;SDS011;45901;47.600;9.890;2022-12-19T12:25:46;9.70;;;5.67;;
60030;SDS011;45901;47.600;9.890;2022-12-19T12:31:27;8.63;;;5.10;;
60030;SDS011;45901;47.600;9.890;2022-12-19T12:34:34;12.00;;;6.33;;
60030;SDS011;45901;47.600;9.890;2022-12-19T12:37:26;8.90;;;5.20;;
60030;SDS011;45901;47.600;9.890;2022-12-19T12:40:14;6.67;;;3.77;;
60030;SDS011;45901;47.600;9.890;2022-12-19T12:43:02;5.97;;;3.17;;
60030;SDS011;45901;47.600;9.890;2022-12-19T12:45:43;5.43;;;3.07;;
60030;SDS011;45901;47.600;9.890;2022-12-19T12:48:13;6.87;;;4.27;;
60030;SDS011;45901;47.600;9.890;2022-12-19T12:50:51;8.60;;;5.20;;
60030;SDS011;45901;47.600;9.890;2022-12-19T12:53:21;8.47;;;5.57;;
60030;SDS011;45901;47.600;9.890;2022-12-19T12:55:53;12.63;;;6.43;;
60030;SDS011;45901;47.600;9.890;2022-12-19T13:01:55;10.77;;;6.30;;
60030;SDS011;45901;47.600;9.890;2022-12-19T13:04:27;11.60;;;6.80;;
60030;SDS011;45901;47.600;9.890;2022-12-19T13:10:15;11.63;;;6.73;;
60030;SDS011;45901;47.600;9.890;2022-12-19T13:12:53;12.70;;;7.53;;
60030;SDS011;45901;47.600;9.890;2022-12-19T13:15:35;12.40;;;7.20;;
60030;SDS011;45901;47.600;9.890;2022-12-19T13:18:28;12.73;;;7.73;;
60030;SDS011;45901;47.600;9.890;2022-12-19T13:20:59;12.93;;;7.63;;
60030;SDS011;45901;47.600;9.890;2022-12-19T13:23:40;11.47;;;7.00;;
60030;SDS011;45901;47.600;9.890;2022-12-19T13:29:32;17.10;;;9.07;;
60030;SDS011;45901;47.600;9.890;2022-12-19T13:32:20;13.20;;;7.60;;
60030;SDS011;45901;47.600;9.890;2022-12-19T13:35:51;14.43;;;8.00;;
60030;SDS011;45901;47.600;9.890;2022-12-19T13:38:19;13.33;;;7.47;;
60030;SDS011;45901;47.600;9.890;2022-12-19T13:40:58;12.87;;;7.70;;
60030;SDS011;45901;47.600;9.890;2022-12-19T13:43:50;11.00;;;6.70;;
60030;SDS011;45901;47.600;9.890;2022-12-19T13:49:09;25.03;;;13.67;;
60030;SDS011;45901;47.600;9.890;2022-12-19T13:51:45;18.83;;;9.43;;
60030;SDS011;45901;47.600;9.890;2022-12-19T13:54:21;14.70;;;8.53;;
60030;SDS011;45901;47.600;9.890;2022-12-19T13:57:22;12.70;;;7.70;;
60030;SDS011;45901;47.600;9.890;2022-12-19T13:59:52;14.30;;;8.47;;
60030;SDS011;45901;47.600;9.890;2022-12-19T14:02:25;11.60;;;7.33;;
60030;SDS011;45901;47.600;9.890;2022-12-19T14:04:58;12.27;;;7.73;;
60030;SDS011;45901;47.600;9.890;2022-12-19T14:07:34;13.20;;;6.77;;
60030;SDS011;45901;47.600;9.890;2022-12-19T14:10:17;17.80;;;11.07;;
60030;SDS011;45901;47.600;9.890;2022-12-19T14:12:52;15.00;;;9.77;;
60030;SDS011;45901;47.600;9.890;2022-12-19T14:15:43;18.87;;;9.43;;
60030;SDS011;45901;47.600;9.890;2022-12-19T14:18:15;22.57;;;10.83;;
60030;SDS011;45901;47.600;9.890;2022-12-19T14:23:51;18.90;;;9.20;;
60030;SDS011;45901;47.600;9.890;2022-12-19T14:26:20;19.90;;;11.03;;
60030;SDS011;45901;47.600;9.890;2022-12-19T14:28:55;36.07;;;11.40;;
60030;SDS011;45901;47.600;9.890;2022-12-19T14:31:30;24.13;;;12.70;;
60030;SDS011;45901;47.600;9.890;2022-12-19T14:34:03;27.50;;;12.73;;
60030;SDS011;45901;47.600;9.890;2022-12-19T14:36:32;30.57;;;13.00;;
60030;SDS011;45901;47.600;9.890;2022-12-19T14:39:02;25.83;;;12.83;;
60030;SDS011;45901;47.600;9.890;2022-12-19T14:41:39;26.63;;;12.37;;
60030;SDS011;45901;47.600;9.890;2022-12-19T14:44:41;21.23;;;10.87;;
60030;SDS011;45901;47.600;9.890;2022-12-19T14:47:18;21.00;;;9.47;;
60030;SDS011;45901;47.600;9.890;2022-12-19T14:49:49;15.73;;;8.23;;
60030;SDS011;45901;47.600;9.890;2022-12-19T14:52:34;14.23;;;8.13;;
60030;SDS011;45901;47.600;9.890;2022-12-19T14:55:23;13.90;;;7.60;;
60030;SDS011;45901;47.600;9.890;2022-12-19T14:57:58;13.37;;;6.27;;
60030;SDS011;45901;47.600;9.890;2022-12-19T15:00:45;11.13;;;6.23;;
60030;SDS011;45901;47.600;9.890;2022-12-19T15:03:27;11.07;;;7.13;;
60030;SDS011;45901;47.600;9.890;2022-12-19T15:06:16;11.67;;;6.10;;
60030;SDS011;45901;47.600;9.890;2022-12-19T15:08:48;13.40;;;7.20;;
60030;SDS011;45901;47.600;9.890;2022-12-19T15:11:26;11.80;;;6.23;;
60030;SDS011;45901;47.600;9.890;2022-12-19T15:14:59;18.97;;;9.57;;
60030;SDS011;45901;47.600;9.890;2022-12-19T15:17:43;22.77;;;12.13;;
60030;SDS011;45901;47.600;9.890;2022-12-19T15:20:14;21.27;;;11.23;;
60030;SDS011;45901;47.600;9.890;2022-12-19T15:22:42;19.27;;;11.17;;
60030;SDS011;45901;47.600;9.890;2022-12-19T15:25:11;14.80;;;7.77;;
60030;SDS011;45901;47.600;9.890;2022-12-19T15:31:42;30.00;;;16.20;;
60030;SDS011;45901;47.600;9.890;2022-12-19T15:34:16;14.60;;;7.67;;
60030;SDS011;45901;47.600;9.890;2022-12-19T15:36:52;13.70;;;8.13;;
60030;SDS011;45901;47.600;9.890;2022-12-19T15:39:21;14.27;;;7.60;;
60030;SDS011;45901;47.600;9.890;2022-12-19T15:41:50;13.47;;;8.97;;
60030;SDS011;45901;47.600;9.890;2022-12-19T15:44:32;14.53;;;8.50;;